sensor_id;sensor_type;location;lat;lon;timestamp;P1;durP1;ratioP1;P2;durP2;ratioP2
1328;SDS011;658;48.820;9.354;2023-04-16T00:02:41;0.73;;;0.73;;
1328;SDS011;658;48.820;9.354;2023-04-16T00:06:42;0.90;;;0.90;;
1328;SDS011;658;48.820;9.354;2023-04-16T00:10:42;0.70;;;0.70;;
1328;SDS011;658;48.820;9.354;2023-04-16T00:14:45;0.77;;;0.77;;
1328;SDS011;658;48.820;9.354;2023-04-16T00:18:48;0.80;;;0.80;;
1328;SDS011;658;48.820;9.354;2023-04-16T00:22:51;0.60;;;0.60;;
1328;SDS011;658;48.820;9.354;2023-04-16T00:26:51;0.90;;;0.90;;
1328;SDS011;658;48.820;9.354;2023-04-16T00:30:52;0.70;;;0.70;;
1328;SDS011;658;48.820;9.354;2023-04-16T00:34:55;0.60;;;0.60;;
1328;SDS011;658;48.820;9.354;2023-04-16T00:38:58;0.80;;;0.80;;
1328;SDS011;658;48.820;9.354;2023-04-16T00:42:58;0.80;;;0.80;;
1328;SDS011;658;48.820;9.354;2023-04-16T00:46:59;0.80;;;0.80;;
1328;SDS011;658;48.820;9.354;2023-04-16T00:51:02;0.80;;;0.80;;
1328;SDS011;658;48.820;9.354;2023-04-16T00:55:05;0.63;;;0.60;;
1328;SDS011;658;48.820;9.354;2023-04-16T00:59:12;0.60;;;0.60;;
1328;SDS011;658;48.820;9.354;2023-04-16T01:03:12;0.90;;;0.90;;
1328;SDS011;658;48.820;9.354;2023-04-16T01:07:15;0.80;;;0.80;;
1328;SDS011;658;48.820;9.354;2023-04-16T01:11:16;0.90;;;0.90;;
1328;SDS011;658;48.820;9.354;2023-04-16T01:15:17;0.77;;;0.77;;
1328;SDS011;658;48.820;9.354;2023-04-16T01:19:19;0.70;;;0.70;;
1328;SDS011;658;48.820;9.354;2023-04-16T01:23:19;0.80;;;0.80;;
1328;SDS011;658;48.820;9.354;2023-04-16T01:27:20;0.90;;;0.90;;
1328;SDS011;658;48.820;9.354;2023-04-16T01:31:23;0.80;;;0.80;;
1328;SDS011;658;48.820;9.354;2023-04-16T01:35:25;1.00;;;1.00;;
1328;SDS011;658;48.820;9.354;2023-04-16T01:39:26;0.70;;;0.70;;
1328;SDS011;658;48.820;9.354;2023-04-16T01:43:27;0.80;;;0.80;;
1328;SDS011;658;48.820;9.354;2023-04-16T01:47:30;1.00;;;0.70;;
1328;SDS011;658;48.820;9.354;2023-04-16T01:51:30;0.70;;;0.70;;
1328;SDS011;658;48.820;9.354;2023-04-16T01:55:32;0.77;;;0.77;;
1328;SDS011;658;48.820;9.354;2023-04-16T01:59:32;0.73;;;0.73;;
1328;SDS011;658;48.820;9.354;2023-04-16T02:03:33;0.90;;;0.90;;
1328;SDS011;658;48.820;9.354;2023-04-16T02:07:36;0.90;;;0.90;;
1328;SDS011;658;48.820;9.354;2023-04-16T02:11:37;0.70;;;0.70;;
1328;SDS011;658;48.820;9.354;2023-04-16T02:15:43;0.73;;;0.73;;
1328;SDS011;658;48.820;9.354;2023-04-16T02:19:50;0.60;;;0.60;;
1328;SDS011;658;48.820;9.354;2023-04-16T02:23:50;0.80;;;0.80;;
1328;SDS011;658;48.820;9.354;2023-04-16T02:27:51;0.80;;;0.80;;
1328;SDS011;658;48.820;9.354;2023-04-16T02:31:51;0.80;;;0.80;;
1328;SDS011;658;48.820;9.354;2023-04-16T02:35:52;0.93;;;0.93;;
1328;SDS011;658;48.820;9.354;2023-04-16T02:39:52;0.70;;;0.70;;
1328;SDS011;658;48.820;9.354;2023-04-16T02:43:53;0.73;;;0.73;;
1328;SDS011;658;48.820;9.354;2023-04-16T02:47:53;0.70;;;0.70;;
1328;SDS011;658;48.820;9.354;2023-04-16T02:51:56;0.80;;;0.80;;
1328;SDS011;658;48.820;9.354;2023-04-16T02:55:57;0.70;;;0.70;;
1328;SDS011;658;48.820;9.354;2023-04-16T02:59:57;0.80;;;0.80;;
1328;SDS011;658;48.820;9.354;2023-04-16T03:04:00;0.73;;;0.73;;
1328;SDS011;658;48.820;9.354;2023-04-16T03:08:03;0.70;;;0.70;;
1328;SDS011;658;48.820;9.354;2023-04-16T03:12:04;0.80;;;0.80;;
1328;SDS011;658;48.820;9.354;2023-04-16T03:16:05;0.80;;;0.80;;
1328;SDS011;658;48.820;9.354;2023-04-16T03:20:06;0.83;;;0.83;;
1328;SDS011;658;48.820;9.354;2023-04-16T03:24:07;0.90;;;0.90;;
1328;SDS011;658;48.820;9.354;2023-04-16T03:28:10;0.80;;;0.80;;
1328;SDS011;658;48.820;9.354;2023-04-16T03:32:13;0.70;;;0.70;;
1328;SDS011;658;48.820;9.354;2023-04-16T03:36:16;0.70;;;0.70;;
1328;SDS011;658;48.820;9.354;2023-04-16T03:40:16;0.80;;;0.80;;
1328;SDS011;658;48.820;9.354;2023-04-16T03:44:17;0.77;;;0.77;;
1328;SDS011;658;48.820;9.354;2023-04-16T03:48:20;0.70;;;0.70;;
1328;SDS011;658;48.820;9.354;2023-04-16T03:52:21;0.70;;;0.70;;
1328;SDS011;658;48.820;9.354;2023-04-16T03:56:26;0.77;;;0.77;;
1328;SDS011;658;48.820;9.354;2023-04-16T04:00:28;0.80;;;0.80;;
1328;SDS011;658;48.820;9.354;2023-04-16T04:04:29;0.63;;;0.63;;
1328;SDS011;658;48.820;9.354;2023-04-16T04:08:30;0.70;;;0.70;;
1328;SDS011;658;48.820;9.354;2023-04-16T04:12:33;0.90;;;0.90;;
1328;SDS011;658;48.820;9.354;2023-04-16T04:16:36;0.80;;;0.80;;
1328;SDS011;658;48.820;9.354;2023-04-16T04:20:39;0.60;;;0.60;;
1328;SDS011;658;48.820;9.354;2023-04-16T04:24:40;1.23;;;0.83;;
1328;SDS011;658;48.820;9.354;2023-04-16T04:28:40;0.90;;;0.90;;
1328;SDS011;658;48.820;9.354;2023-04-16T04:32:41;1.00;;;1.00;;
1328;SDS011;658;48.820;9.354;2023-04-16T04:36:42;0.90;;;0.90;;
1328;SDS011;658;48.820;9.354;2023-04-16T04:40:45;0.63;;;0.63;;
1328;SDS011;658;48.820;9.354;2023-04-16T04:44:45;0.70;;;0.70;;
1328;SDS011;658;48.820;9.354;2023-04-16T04:48:46;0.83;;;0.83;;
1328;SDS011;658;48.820;9.354;2023-04-16T04:52:47;0.77;;;0.77;;
1328;SDS011;658;48.820;9.354;2023-04-16T04:56:47;1.33;;;0.90;;
1328;SDS011;658;48.820;9.354;2023-04-16T05:00:48;0.70;;;0.70;;
1328;SDS011;658;48.820;9.354;2023-04-16T05:04:48;0.70;;;0.70;;
1328;SDS011;658;48.820;9.354;2023-04-16T05:08:49;0.60;;;0.60;;
1328;SDS011;658;48.820;9.354;2023-04-16T05:12:52;0.60;;;0.60;;
1328;SDS011;658;48.820;9.354;2023-04-16T05:16:55;0.70;;;0.70;;
1328;SDS011;658;48.820;9.354;2023-04-16T05:20:55;0.70;;;0.70;;
1328;SDS011;658;48.820;9.354;2023-04-16T05:24:56;0.60;;;0.60;;
1328;SDS011;658;48.820;9.354;2023-04-16T05:28:59;0.70;;;0.70;;
1328;SDS011;658;48.820;9.354;2023-04-16T05:32:59;0.63;;;0.63;;
1328;SDS011;658;48.820;9.354;2023-04-16T05:37:00;0.70;;;0.70;;
1328;SDS011;658;48.820;9.354;2023-04-16T05:41:03;0.60;;;0.60;;
1328;SDS011;658;48.820;9.354;2023-04-16T05:45:05;1.00;;;1.00;;
1328;SDS011;658;48.820;9.354;2023-04-16T05:49:09;0.83;;;0.83;;
1328;SDS011;658;48.820;9.354;2023-04-16T05:53:12;0.70;;;0.70;;
1328;SDS011;658;48.820;9.354;2023-04-16T05:57:15;0.70;;;0.70;;
1328;SDS011;658;48.820;9.354;2023-04-16T06:01:18;0.80;;;0.80;;
1328;SDS011;658;48.820;9.354;2023-04-16T06:05:19;0.90;;;0.90;;
1328;SDS011;658;48.820;9.354;2023-04-16T06:09:21;1.17;;;1.17;;
1328;SDS011;658;48.820;9.354;2023-04-16T06:13:22;0.70;;;0.70;;
1328;SDS011;658;48.820;9.354;2023-04-16T06:17:22;0.73;;;0.73;;
1328;SDS011;658;48.820;9.354;2023-04-16T06:21:23;0.93;;;0.93;;
1328;SDS011;658;48.820;9.354;2023-04-16T06:25:23;0.70;;;0.70;;
1328;SDS011;658;48.820;9.354;2023-04-16T06:29:24;0.87;;;0.87;;
1328;SDS011;658;48.820;9.354;2023-04-16T06:33:27;0.90;;;0.90;;
1328;SDS011;658;48.820;9.354;2023-04-16T06:37:30;0.90;;;0.90;;
1328;SDS011;658;48.820;9.354;2023-04-16T06:41:34;0.90;;;0.90;;
1328;SDS011;658;48.820;9.354;2023-04-16T06:45:36;0.70;;;0.70;;
1328;SDS011;658;48.820;9.354;2023-04-16T06:49:37;0.80;;;0.80;;
1328;SDS011;658;48.820;9.354;2023-04-16T06:53:40;0.90;;;0.90;;
1328;SDS011;658;48.820;9.354;2023-04-16T06:57:43;0.90;;;0.90;;
1328;SDS011;658;48.820;9.354;2023-04-16T07:01:43;1.40;;;1.30;;
1328;SDS011;658;48.820;9.354;2023-04-16T07:05:46;1.10;;;1.00;;
1328;SDS011;658;48.820;9.354;2023-04-16T07:09:46;1.07;;;1.03;;
1328;SDS011;658;48.820;9.354;2023-04-16T07:13:47;0.90;;;0.90;;
1328;SDS011;658;48.820;9.354;2023-04-16T07:17:49;1.00;;;1.00;;
1328;SDS011;658;48.820;9.354;2023-04-16T07:21:52;1.20;;;1.20;;
1328;SDS011;658;48.820;9.354;2023-04-16T07:25:53;0.80;;;0.80;;
1328;SDS011;658;48.820;9.354;2023-04-16T07:29:56;1.13;;;1.13;;
1328;SDS011;658;48.820;9.354;2023-04-16T07:33:59;0.90;;;0.90;;
1328;SDS011;658;48.820;9.354;2023-04-16T07:38:02;0.97;;;0.97;;
1328;SDS011;658;48.820;9.354;2023-04-16T07:42:05;1.50;;;1.30;;
1328;SDS011;658;48.820;9.354;2023-04-16T07:46:07;1.40;;;1.30;;
1328;SDS011;658;48.820;9.354;2023-04-16T07:50:08;1.37;;;1.27;;
1328;SDS011;658;48.820;9.354;2023-04-16T07:54:11;1.10;;;1.10;;
1328;SDS011;658;48.820;9.354;2023-04-16T07:58:12;1.20;;;1.10;;
1328;SDS011;658;48.820;9.354;2023-04-16T08:02:13;1.10;;;1.00;;
1328;SDS011;658;48.820;9.354;2023-04-16T08:06:15;1.40;;;1.30;;
1328;SDS011;658;48.820;9.354;2023-04-16T08:10:18;1.10;;;1.10;;
1328;SDS011;658;48.820;9.354;2023-04-16T08:14:21;1.70;;;1.60;;
1328;SDS011;658;48.820;9.354;2023-04-16T08:18:27;1.20;;;1.20;;
1328;SDS011;658;48.820;9.354;2023-04-16T08:22:27;1.57;;;1.47;;
1328;SDS011;658;48.820;9.354;2023-04-16T08:26:28;1.30;;;1.23;;
1328;SDS011;658;48.820;9.354;2023-04-16T08:30:31;1.40;;;1.30;;
1328;SDS011;658;48.820;9.354;2023-04-16T08:34:34;1.57;;;1.47;;
1328;SDS011;658;48.820;9.354;2023-04-16T08:38:37;1.60;;;1.50;;
1328;SDS011;658;48.820;9.354;2023-04-16T08:42:44;1.63;;;1.53;;
1328;SDS011;658;48.820;9.354;2023-04-16T08:46:49;1.70;;;1.60;;
1328;SDS011;658;48.820;9.354;2023-04-16T08:50:56;1.63;;;1.53;;
1328;SDS011;658;48.820;9.354;2023-04-16T08:55:11;1.50;;;1.40;;
1328;SDS011;658;48.820;9.354;2023-04-16T08:59:13;1.60;;;1.50;;
1328;SDS011;658;48.820;9.354;2023-04-16T09:03:16;1.67;;;1.57;;
1328;SDS011;658;48.820;9.354;2023-04-16T09:07:19;1.80;;;1.70;;
1328;SDS011;658;48.820;9.354;2023-04-16T09:11:20;1.70;;;1.60;;
1328;SDS011;658;48.820;9.354;2023-04-16T09:15:24;1.70;;;1.60;;
1328;SDS011;658;48.820;9.354;2023-04-16T09:19:28;1.70;;;1.60;;
1328;SDS011;658;48.820;9.354;2023-04-16T09:23:31;1.70;;;1.60;;
1328;SDS011;658;48.820;9.354;2023-04-16T09:27:32;1.53;;;1.43;;
1328;SDS011;658;48.820;9.354;2023-04-16T09:31:35;1.70;;;1.60;;
1328;SDS011;658;48.820;9.354;2023-04-16T09:35:43;1.70;;;1.60;;
1328;SDS011;658;48.820;9.354;2023-04-16T09:44:01;1.70;;;1.60;;
1328;SDS011;658;48.820;9.354;2023-04-16T09:48:05;1.70;;;1.60;;
1328;SDS011;658;48.820;9.354;2023-04-16T09:52:16;2.00;;;1.90;;
1328;SDS011;658;48.820;9.354;2023-04-16T09:56:22;1.70;;;1.60;;
1328;SDS011;658;48.820;9.354;2023-04-16T10:00:27;1.63;;;1.53;;
1328;SDS011;658;48.820;9.354;2023-04-16T10:04:28;1.70;;;1.60;;
1328;SDS011;658;48.820;9.354;2023-04-16T10:08:29;1.60;;;1.50;;
1328;SDS011;658;48.820;9.354;2023-04-16T10:12:32;2.03;;;1.93;;
1328;SDS011;658;48.820;9.354;2023-04-16T10:16:34;1.77;;;1.67;;
1328;SDS011;658;48.820;9.354;2023-04-16T10:20:35;1.83;;;1.73;;
1328;SDS011;658;48.820;9.354;2023-04-16T10:24:38;2.00;;;1.90;;
1328;SDS011;658;48.820;9.354;2023-04-16T10:28:43;1.83;;;1.73;;
1328;SDS011;658;48.820;9.354;2023-04-16T10:32:49;2.13;;;2.03;;
1328;SDS011;658;48.820;9.354;2023-04-16T10:36:53;1.90;;;1.80;;
1328;SDS011;658;48.820;9.354;2023-04-16T10:40:58;2.00;;;1.90;;
1328;SDS011;658;48.820;9.354;2023-04-16T10:45:01;1.80;;;1.70;;
1328;SDS011;658;48.820;9.354;2023-04-16T10:49:12;2.10;;;2.00;;
1328;SDS011;658;48.820;9.354;2023-04-16T10:53:24;2.00;;;1.80;;
1328;SDS011;658;48.820;9.354;2023-04-16T10:57:28;1.90;;;1.80;;
1328;SDS011;658;48.820;9.354;2023-04-16T11:01:30;1.80;;;1.70;;
1328;SDS011;658;48.820;9.354;2023-04-16T11:05:44;1.73;;;1.63;;
1328;SDS011;658;48.820;9.354;2023-04-16T11:14:01;2.00;;;1.90;;
1328;SDS011;658;48.820;9.354;2023-04-16T11:18:03;1.80;;;1.70;;
1328;SDS011;658;48.820;9.354;2023-04-16T11:22:05;2.40;;;2.17;;
1328;SDS011;658;48.820;9.354;2023-04-16T11:26:18;2.17;;;2.07;;
1328;SDS011;658;48.820;9.354;2023-04-16T11:30:30;2.00;;;1.90;;
1328;SDS011;658;48.820;9.354;2023-04-16T11:34:41;2.07;;;1.97;;
1328;SDS011;658;48.820;9.354;2023-04-16T11:38:44;1.80;;;1.70;;
1328;SDS011;658;48.820;9.354;2023-04-16T11:42:45;1.80;;;1.70;;
1328;SDS011;658;48.820;9.354;2023-04-16T11:46:46;1.90;;;1.80;;
1328;SDS011;658;48.820;9.354;2023-04-16T11:50:57;1.93;;;1.83;;
1328;SDS011;658;48.820;9.354;2023-04-16T11:54:58;2.20;;;2.10;;
1328;SDS011;658;48.820;9.354;2023-04-16T12:03:15;2.20;;;2.10;;
1328;SDS011;658;48.820;9.354;2023-04-16T12:07:16;1.93;;;1.83;;
1328;SDS011;658;48.820;9.354;2023-04-16T12:11:16;2.03;;;1.93;;
1328;SDS011;658;48.820;9.354;2023-04-16T12:15:17;2.27;;;2.07;;
1328;SDS011;658;48.820;9.354;2023-04-16T12:19:18;2.40;;;2.30;;
1328;SDS011;658;48.820;9.354;2023-04-16T12:31:46;2.17;;;2.07;;
1328;SDS011;658;48.820;9.354;2023-04-16T12:35:51;2.47;;;2.27;;
1328;SDS011;658;48.820;9.354;2023-04-16T12:39:54;2.13;;;2.03;;
1328;SDS011;658;48.820;9.354;2023-04-16T12:44:07;1.80;;;1.70;;
1328;SDS011;658;48.820;9.354;2023-04-16T12:48:17;2.00;;;1.90;;
1328;SDS011;658;48.820;9.354;2023-04-16T12:52:19;1.97;;;1.87;;
1328;SDS011;658;48.820;9.354;2023-04-16T12:56:20;2.00;;;1.90;;
1328;SDS011;658;48.820;9.354;2023-04-16T13:00:21;2.07;;;1.97;;
1328;SDS011;658;48.820;9.354;2023-04-16T13:04:22;2.00;;;1.90;;
1328;SDS011;658;48.820;9.354;2023-04-16T13:08:22;1.77;;;1.67;;
1328;SDS011;658;48.820;9.354;2023-04-16T13:12:25;2.20;;;2.10;;
1328;SDS011;658;48.820;9.354;2023-04-16T13:16:26;2.20;;;2.03;;
1328;SDS011;658;48.820;9.354;2023-04-16T13:20:29;1.70;;;1.60;;
1328;SDS011;658;48.820;9.354;2023-04-16T13:24:30;1.90;;;1.80;;
1328;SDS011;658;48.820;9.354;2023-04-16T13:28:30;2.00;;;1.90;;
1328;SDS011;658;48.820;9.354;2023-04-16T13:32:33;2.00;;;1.90;;
1328;SDS011;658;48.820;9.354;2023-04-16T13:36:38;2.00;;;1.90;;
1328;SDS011;658;48.820;9.354;2023-04-16T13:40:41;1.60;;;1.50;;
1328;SDS011;658;48.820;9.354;2023-04-16T13:44:45;1.80;;;1.70;;
1328;SDS011;658;48.820;9.354;2023-04-16T13:48:50;1.93;;;1.83;;
1328;SDS011;658;48.820;9.354;2023-04-16T13:52:50;2.10;;;2.00;;
1328;SDS011;658;48.820;9.354;2023-04-16T13:56:53;1.87;;;1.77;;
1328;SDS011;658;48.820;9.354;2023-04-16T14:00:56;1.80;;;1.70;;
1328;SDS011;658;48.820;9.354;2023-04-16T14:04:56;1.93;;;1.83;;
1328;SDS011;658;48.820;9.354;2023-04-16T14:08:57;1.80;;;1.70;;
1328;SDS011;658;48.820;9.354;2023-04-16T14:12:58;1.93;;;1.83;;
1328;SDS011;658;48.820;9.354;2023-04-16T14:17:00;1.87;;;1.77;;
1328;SDS011;658;48.820;9.354;2023-04-16T14:21:02;2.00;;;1.90;;
1328;SDS011;658;48.820;9.354;2023-04-16T14:25:02;2.10;;;2.00;;
1328;SDS011;658;48.820;9.354;2023-04-16T14:29:06;2.00;;;1.90;;
1328;SDS011;658;48.820;9.354;2023-04-16T14:33:06;1.77;;;1.67;;
1328;SDS011;658;48.820;9.354;2023-04-16T14:37:07;2.00;;;1.90;;
1328;SDS011;658;48.820;9.354;2023-04-16T14:41:11;1.73;;;1.63;;
1328;SDS011;658;48.820;9.354;2023-04-16T14:45:14;1.80;;;1.70;;
1328;SDS011;658;48.820;9.354;2023-04-16T14:49:17;1.70;;;1.60;;
1328;SDS011;658;48.820;9.354;2023-04-16T14:53:18;2.00;;;1.90;;
1328;SDS011;658;48.820;9.354;2023-04-16T14:57:20;2.00;;;1.83;;
1328;SDS011;658;48.820;9.354;2023-04-16T15:01:24;1.97;;;1.87;;
1328;SDS011;658;48.820;9.354;2023-04-16T15:05:25;1.60;;;1.50;;
1328;SDS011;658;48.820;9.354;2023-04-16T15:09:26;1.80;;;1.70;;
1328;SDS011;658;48.820;9.354;2023-04-16T15:13:29;1.63;;;1.53;;
1328;SDS011;658;48.820;9.354;2023-04-16T15:17:32;1.77;;;1.67;;
1328;SDS011;658;48.820;9.354;2023-04-16T15:21:33;2.00;;;1.90;;
1328;SDS011;658;48.820;9.354;2023-04-16T15:25:34;1.90;;;1.80;;
1328;SDS011;658;48.820;9.354;2023-04-16T15:29:34;1.70;;;1.60;;
1328;SDS011;658;48.820;9.354;2023-04-16T15:33:35;1.70;;;1.60;;
1328;SDS011;658;48.820;9.354;2023-04-16T15:37:36;2.00;;;1.90;;
1328;SDS011;658;48.820;9.354;2023-04-16T15:41:40;1.83;;;1.73;;
1328;SDS011;658;48.820;9.354;2023-04-16T15:45:43;2.10;;;2.00;;
1328;SDS011;658;48.820;9.354;2023-04-16T15:49:43;1.60;;;1.50;;
1328;SDS011;658;48.820;9.354;2023-04-16T15:53:46;2.10;;;2.00;;
1328;SDS011;658;48.820;9.354;2023-04-16T15:57:52;2.00;;;1.90;;
1328;SDS011;658;48.820;9.354;2023-04-16T16:01:53;1.73;;;1.63;;
1328;SDS011;658;48.820;9.354;2023-04-16T16:05:58;1.40;;;1.30;;
1328;SDS011;658;48.820;9.354;2023-04-16T16:10:00;1.53;;;1.43;;
1328;SDS011;658;48.820;9.354;2023-04-16T16:14:03;1.70;;;1.60;;
1328;SDS011;658;48.820;9.354;2023-04-16T16:18:04;1.70;;;1.60;;
1328;SDS011;658;48.820;9.354;2023-04-16T16:22:05;1.90;;;1.80;;
1328;SDS011;658;48.820;9.354;2023-04-16T16:26:09;1.50;;;1.40;;
1328;SDS011;658;48.820;9.354;2023-04-16T16:30:09;2.07;;;1.97;;
1328;SDS011;658;48.820;9.354;2023-04-16T16:34:10;1.70;;;1.60;;
1328;SDS011;658;48.820;9.354;2023-04-16T16:38:11;1.80;;;1.70;;
1328;SDS011;658;48.820;9.354;2023-04-16T16:42:14;1.90;;;1.80;;
1328;SDS011;658;48.820;9.354;2023-04-16T16:46:17;1.80;;;1.70;;
1328;SDS011;658;48.820;9.354;2023-04-16T16:50:20;2.47;;;2.27;;
1328;SDS011;658;48.820;9.354;2023-04-16T16:54:21;4.20;;;2.60;;
1328;SDS011;658;48.820;9.354;2023-04-16T16:58:22;2.40;;;2.20;;
1328;SDS011;658;48.820;9.354;2023-04-16T17:02:26;2.50;;;2.40;;
1328;SDS011;658;48.820;9.354;2023-04-16T17:06:31;2.70;;;2.50;;
1328;SDS011;658;48.820;9.354;2023-04-16T17:10:32;3.10;;;2.90;;
1328;SDS011;658;48.820;9.354;2023-04-16T17:14:34;3.07;;;2.87;;
1328;SDS011;658;48.820;9.354;2023-04-16T17:18:34;3.40;;;3.10;;
1328;SDS011;658;48.820;9.354;2023-04-16T17:22:36;3.40;;;3.07;;
1328;SDS011;658;48.820;9.354;2023-04-16T17:26:37;3.93;;;3.37;;
1328;SDS011;658;48.820;9.354;2023-04-16T17:30:39;3.20;;;3.00;;
1328;SDS011;658;48.820;9.354;2023-04-16T17:34:42;3.40;;;3.10;;
1328;SDS011;658;48.820;9.354;2023-04-16T17:38:43;3.53;;;3.20;;
1328;SDS011;658;48.820;9.354;2023-04-16T17:42:43;3.57;;;3.20;;
1328;SDS011;658;48.820;9.354;2023-04-16T17:46:44;3.90;;;3.60;;
1328;SDS011;658;48.820;9.354;2023-04-16T17:50:45;4.07;;;3.67;;
1328;SDS011;658;48.820;9.354;2023-04-16T17:54:46;4.00;;;3.50;;
1328;SDS011;658;48.820;9.354;2023-04-16T17:58:49;4.07;;;3.63;;
1328;SDS011;658;48.820;9.354;2023-04-16T18:02:50;3.63;;;3.33;;
1328;SDS011;658;48.820;9.354;2023-04-16T18:06:51;12.63;;;4.30;;
1328;SDS011;658;48.820;9.354;2023-04-16T18:10:52;3.50;;;3.20;;
1328;SDS011;658;48.820;9.354;2023-04-16T18:14:56;3.70;;;3.40;;
1328;SDS011;658;48.820;9.354;2023-04-16T18:18:56;6.60;;;4.20;;
1328;SDS011;658;48.820;9.354;2023-04-16T18:23:01;11.50;;;4.40;;
1328;SDS011;658;48.820;9.354;2023-04-16T18:27:02;7.00;;;4.67;;
1328;SDS011;658;48.820;9.354;2023-04-16T18:31:03;5.33;;;4.20;;
1328;SDS011;658;48.820;9.354;2023-04-16T18:35:05;5.27;;;3.80;;
1328;SDS011;658;48.820;9.354;2023-04-16T18:39:07;6.80;;;3.40;;
1328;SDS011;658;48.820;9.354;2023-04-16T18:43:07;5.10;;;3.93;;
1328;SDS011;658;48.820;9.354;2023-04-16T18:47:08;5.80;;;4.00;;
1328;SDS011;658;48.820;9.354;2023-04-16T18:51:09;5.17;;;3.60;;
1328;SDS011;658;48.820;9.354;2023-04-16T18:55:10;7.63;;;4.03;;
1328;SDS011;658;48.820;9.354;2023-04-16T18:59:10;4.63;;;3.80;;
1328;SDS011;658;48.820;9.354;2023-04-16T19:03:16;4.27;;;3.70;;
1328;SDS011;658;48.820;9.354;2023-04-16T19:07:19;5.03;;;3.70;;
1328;SDS011;658;48.820;9.354;2023-04-16T19:11:19;6.47;;;3.77;;
1328;SDS011;658;48.820;9.354;2023-04-16T19:15:22;5.53;;;3.63;;
1328;SDS011;658;48.820;9.354;2023-04-16T19:19:23;4.20;;;3.80;;
1328;SDS011;658;48.820;9.354;2023-04-16T19:23:23;3.90;;;3.60;;
1328;SDS011;658;48.820;9.354;2023-04-16T19:27:29;4.63;;;3.63;;
1328;SDS011;658;48.820;9.354;2023-04-16T19:31:30;8.50;;;3.93;;
1328;SDS011;658;48.820;9.354;2023-04-16T19:35:31;4.77;;;3.73;;
1328;SDS011;658;48.820;9.354;2023-04-16T19:39:32;6.90;;;3.70;;
1328;SDS011;658;48.820;9.354;2023-04-16T19:43:35;3.97;;;3.60;;
1328;SDS011;658;48.820;9.354;2023-04-16T19:47:36;4.80;;;3.80;;
1328;SDS011;658;48.820;9.354;2023-04-16T19:51:36;4.00;;;3.70;;
1328;SDS011;658;48.820;9.354;2023-04-16T19:55:40;4.50;;;3.73;;
1328;SDS011;658;48.820;9.354;2023-04-16T19:59:43;4.00;;;3.60;;
1328;SDS011;658;48.820;9.354;2023-04-16T20:03:43;4.57;;;3.43;;
1328;SDS011;658;48.820;9.354;2023-04-16T20:07:46;3.70;;;3.50;;
1328;SDS011;658;48.820;9.354;2023-04-16T20:11:47;3.70;;;3.40;;
1328;SDS011;658;48.820;9.354;2023-04-16T20:15:51;4.33;;;3.93;;
1328;SDS011;658;48.820;9.354;2023-04-16T20:19:55;4.27;;;3.87;;
1328;SDS011;658;48.820;9.354;2023-04-16T20:23:59;3.47;;;3.27;;
1328;SDS011;658;48.820;9.354;2023-04-16T20:28:00;4.00;;;3.50;;
1328;SDS011;658;48.820;9.354;2023-04-16T20:32:01;5.00;;;3.30;;
1328;SDS011;658;48.820;9.354;2023-04-16T20:36:01;3.57;;;3.27;;
1328;SDS011;658;48.820;9.354;2023-04-16T20:40:04;5.10;;;3.23;;
1328;SDS011;658;48.820;9.354;2023-04-16T20:44:12;3.30;;;3.10;;
1328;SDS011;658;48.820;9.354;2023-04-16T20:48:17;3.67;;;3.27;;
1328;SDS011;658;48.820;9.354;2023-04-16T20:52:18;3.90;;;3.60;;
1328;SDS011;658;48.820;9.354;2023-04-16T20:56:22;4.07;;;3.73;;
1328;SDS011;658;48.820;9.354;2023-04-16T21:00:23;4.17;;;3.40;;
1328;SDS011;658;48.820;9.354;2023-04-16T21:04:23;3.80;;;3.50;;
1328;SDS011;658;48.820;9.354;2023-04-16T21:08:24;3.77;;;3.37;;
1328;SDS011;658;48.820;9.354;2023-04-16T21:12:25;3.37;;;3.17;;
1328;SDS011;658;48.820;9.354;2023-04-16T21:16:26;4.30;;;3.17;;
1328;SDS011;658;48.820;9.354;2023-04-16T21:20:26;3.43;;;3.23;;
1328;SDS011;658;48.820;9.354;2023-04-16T21:24:30;3.63;;;3.33;;
1328;SDS011;658;48.820;9.354;2023-04-16T21:28:33;3.40;;;3.20;;
1328;SDS011;658;48.820;9.354;2023-04-16T21:32:36;3.20;;;3.00;;
1328;SDS011;658;48.820;9.354;2023-04-16T21:36:36;3.53;;;3.23;;
1328;SDS011;658;48.820;9.354;2023-04-16T21:40:39;3.67;;;3.37;;
1328;SDS011;658;48.820;9.354;2023-04-16T21:44:39;3.00;;;2.80;;
1328;SDS011;658;48.820;9.354;2023-04-16T21:48:40;3.77;;;3.47;;
1328;SDS011;658;48.820;9.354;2023-04-16T21:52:41;3.40;;;3.13;;
1328;SDS011;658;48.820;9.354;2023-04-16T21:56:45;3.77;;;3.47;;
1328;SDS011;658;48.820;9.354;2023-04-16T22:00:46;3.10;;;2.90;;
1328;SDS011;658;48.820;9.354;2023-04-16T22:04:49;3.17;;;2.93;;
1328;SDS011;658;48.820;9.354;2023-04-16T22:08:54;3.17;;;2.97;;
1328;SDS011;658;48.820;9.354;2023-04-16T22:12:57;3.67;;;3.40;;
1328;SDS011;658;48.820;9.354;2023-04-16T22:16:58;3.30;;;3.10;;
1328;SDS011;658;48.820;9.354;2023-04-16T22:20:59;3.93;;;3.67;;
1328;SDS011;658;48.820;9.354;2023-04-16T22:25:00;3.10;;;2.90;;
1328;SDS011;658;48.820;9.354;2023-04-16T22:29:03;4.17;;;3.00;;
1328;SDS011;658;48.820;9.354;2023-04-16T22:33:03;3.37;;;3.07;;
1328;SDS011;658;48.820;9.354;2023-04-16T22:37:07;3.23;;;3.03;;
1328;SDS011;658;48.820;9.354;2023-04-16T22:41:07;3.10;;;2.90;;
1328;SDS011;658;48.820;9.354;2023-04-16T22:45:08;3.20;;;3.00;;
1328;SDS011;658;48.820;9.354;2023-04-16T22:49:11;2.70;;;2.50;;
1328;SDS011;658;48.820;9.354;2023-04-16T22:53:12;2.93;;;2.73;;
1328;SDS011;658;48.820;9.354;2023-04-16T22:57:15;3.33;;;2.80;;
1328;SDS011;658;48.820;9.354;2023-04-16T23:01:19;3.27;;;3.00;;
1328;SDS011;658;48.820;9.354;2023-04-16T23:05:20;2.50;;;2.30;;
1328;SDS011;658;48.820;9.354;2023-04-16T23:09:21;2.90;;;2.80;;
1328;SDS011;658;48.820;9.354;2023-04-16T23:13:22;3.37;;;3.10;;
1328;SDS011;658;48.820;9.354;2023-04-16T23:17:24;3.00;;;2.80;;
1328;SDS011;658;48.820;9.354;2023-04-16T23:21:25;2.50;;;2.30;;
1328;SDS011;658;48.820;9.354;2023-04-16T23:25:25;2.60;;;2.40;;
1328;SDS011;658;48.820;9.354;2023-04-16T23:29:31;2.60;;;2.40;;
1328;SDS011;658;48.820;9.354;2023-04-16T23:33:31;2.77;;;2.57;;
1328;SDS011;658;48.820;9.354;2023-04-16T23:37:34;2.93;;;2.73;;
1328;SDS011;658;48.820;9.354;2023-04-16T23:41:35;2.60;;;2.40;;
1328;SDS011;658;48.820;9.354;2023-04-16T23:45:35;2.77;;;2.57;;
1328;SDS011;658;48.820;9.354;2023-04-16T23:49:38;3.97;;;2.90;;
1328;SDS011;658;48.820;9.354;2023-04-16T23:53:39;2.77;;;2.57;;
1328;SDS011;658;48.820;9.354;2023-04-16T23:57:39;2.97;;;2.77;;
